KTCC/TCC METAR and TAF weather

Enter ICAO airport designator
Station Type Date Time Source
KTCC METAR 2020/04/07 14:53 UTC NOAA

KTCC 071453Z AUTO 27006KT 10SM CLR 17/M06 A3000 RMK AO2 SLP112 T01721056 53016


Station Type Date Time Source
KTCC Decoded METAR 2020/04/07 14:53 UTC NOAA

TUCUMCARI MUNICIPAL AIRPORT , NM, United States (KTCC) 35-11N 103-36W 1235M
Apr 07, 2020 - 10:53 AM EDT / 2020.04.07 1453 UTC
Wind: from the W (270 degrees) at 7 MPH (6 KT):0
Visibility: 10 mile(s):0
Sky conditions: clear
Temperature: 63.0 F (17.2 C)
Dew Point: 21.9 F (-5.6 C)
Relative Humidity: 20%
Pressure (altimeter): 30 in. Hg (1015 hPa)
Pressure tendency: 0.05 inches (1.6 hPa) higher than three hours ago
ob: KTCC 071453Z AUTO 27006KT 10SM CLR 17/M06 A3000 RMK AO2 SLP112 T01721056 53016
cycle: 15

Station Type Date Time Source
KTCC TAF 2020/04/07 12:22 UTC NOAA

TAF KTCC 071120Z 0712/0812 27010KT P6SM FEW250
FM071900 26014G22KT P6SM SKC
FM080200 27010KT P6SM FEW150

Example: see airport list